sensor_id;sensor_type;location;lat;lon;timestamp;P1;durP1;ratioP1;P2;durP2;ratioP2
73136;SDS011;67767;45.636;11.756;2024-03-17T00:00:29;85.45;;;50.22;;
73136;SDS011;67767;45.636;11.756;2024-03-17T00:02:56;78.93;;;47.22;;
73136;SDS011;67767;45.636;11.756;2024-03-17T00:05:22;77.80;;;45.63;;
73136;SDS011;67767;45.636;11.756;2024-03-17T00:07:47;71.67;;;45.30;;
73136;SDS011;67767;45.636;11.756;2024-03-17T00:10:13;73.35;;;44.92;;
73136;SDS011;67767;45.636;11.756;2024-03-17T00:12:40;68.65;;;42.53;;
73136;SDS011;67767;45.636;11.756;2024-03-17T00:15:06;75.23;;;42.93;;
73136;SDS011;67767;45.636;11.756;2024-03-17T00:17:32;75.20;;;44.13;;
73136;SDS011;67767;45.636;11.756;2024-03-17T00:19:59;75.50;;;44.60;;
73136;SDS011;67767;45.636;11.756;2024-03-17T00:22:29;73.57;;;44.28;;
73136;SDS011;67767;45.636;11.756;2024-03-17T00:24:55;79.22;;;45.05;;
73136;SDS011;67767;45.636;11.756;2024-03-17T00:27:21;77.10;;;46.50;;
73136;SDS011;67767;45.636;11.756;2024-03-17T00:29:46;75.88;;;46.30;;
73136;SDS011;67767;45.636;11.756;2024-03-17T00:32:12;81.47;;;47.70;;
73136;SDS011;67767;45.636;11.756;2024-03-17T00:34:39;77.88;;;47.00;;
73136;SDS011;67767;45.636;11.756;2024-03-17T00:37:05;79.05;;;46.35;;
73136;SDS011;67767;45.636;11.756;2024-03-17T00:39:30;88.67;;;48.40;;
73136;SDS011;67767;45.636;11.756;2024-03-17T00:41:57;86.88;;;49.63;;
73136;SDS011;67767;45.636;11.756;2024-03-17T00:44:22;86.33;;;48.50;;
73136;SDS011;67767;45.636;11.756;2024-03-17T00:46:48;84.95;;;48.53;;
73136;SDS011;67767;45.636;11.756;2024-03-17T00:49:14;84.80;;;49.30;;
73136;SDS011;67767;45.636;11.756;2024-03-17T00:51:39;82.63;;;48.33;;
73136;SDS011;67767;45.636;11.756;2024-03-17T00:54:05;89.80;;;50.23;;
73136;SDS011;67767;45.636;11.756;2024-03-17T00:56:31;90.50;;;49.90;;
73136;SDS011;67767;45.636;11.756;2024-03-17T00:58:56;86.15;;;50.38;;
73136;SDS011;67767;45.636;11.756;2024-03-17T01:01:22;92.70;;;51.73;;
73136;SDS011;67767;45.636;11.756;2024-03-17T01:03:48;88.97;;;50.72;;
73136;SDS011;67767;45.636;11.756;2024-03-17T01:06:14;89.67;;;50.33;;
73136;SDS011;67767;45.636;11.756;2024-03-17T01:08:39;78.38;;;47.30;;
73136;SDS011;67767;45.636;11.756;2024-03-17T01:11:05;85.50;;;49.90;;
73136;SDS011;67767;45.636;11.756;2024-03-17T01:13:33;86.45;;;49.25;;
73136;SDS011;67767;45.636;11.756;2024-03-17T01:16:02;82.47;;;49.03;;
73136;SDS011;67767;45.636;11.756;2024-03-17T01:18:28;88.75;;;48.70;;
73136;SDS011;67767;45.636;11.756;2024-03-17T01:20:54;82.07;;;49.67;;
73136;SDS011;67767;45.636;11.756;2024-03-17T01:23:20;85.07;;;47.87;;
73136;SDS011;67767;45.636;11.756;2024-03-17T01:25:45;85.53;;;46.95;;
73136;SDS011;67767;45.636;11.756;2024-03-17T01:28:11;84.27;;;47.50;;
73136;SDS011;67767;45.636;11.756;2024-03-17T01:30:37;82.87;;;47.77;;
73136;SDS011;67767;45.636;11.756;2024-03-17T01:33:03;82.33;;;48.73;;
73136;SDS011;67767;45.636;11.756;2024-03-17T01:35:30;86.55;;;48.67;;
73136;SDS011;67767;45.636;11.756;2024-03-17T01:37:56;84.30;;;48.60;;
73136;SDS011;67767;45.636;11.756;2024-03-17T01:40:21;84.13;;;48.83;;
73136;SDS011;67767;45.636;11.756;2024-03-17T01:42:47;84.40;;;48.50;;
73136;SDS011;67767;45.636;11.756;2024-03-17T01:45:33;88.38;;;49.97;;
73136;SDS011;67767;45.636;11.756;2024-03-17T01:48:00;93.20;;;51.03;;
73136;SDS011;67767;45.636;11.756;2024-03-17T01:50:37;89.20;;;50.97;;
73136;SDS011;67767;45.636;11.756;2024-03-17T01:53:03;91.23;;;50.47;;
73136;SDS011;67767;45.636;11.756;2024-03-17T01:55:35;85.32;;;48.92;;
73136;SDS011;67767;45.636;11.756;2024-03-17T01:58:03;88.30;;;48.55;;
73136;SDS011;67767;45.636;11.756;2024-03-17T02:00:32;87.53;;;48.38;;
73136;SDS011;67767;45.636;11.756;2024-03-17T02:03:08;85.80;;;48.92;;
73136;SDS011;67767;45.636;11.756;2024-03-17T02:05:35;87.67;;;47.80;;
73136;SDS011;67767;45.636;11.756;2024-03-17T02:08:02;85.05;;;48.47;;
73136;SDS011;67767;45.636;11.756;2024-03-17T02:10:29;88.13;;;49.38;;
73136;SDS011;67767;45.636;11.756;2024-03-17T02:12:55;83.50;;;49.30;;
73136;SDS011;67767;45.636;11.756;2024-03-17T02:15:21;82.95;;;48.67;;
73136;SDS011;67767;45.636;11.756;2024-03-17T02:17:46;87.32;;;49.75;;
73136;SDS011;67767;45.636;11.756;2024-03-17T02:20:12;82.77;;;48.33;;
73136;SDS011;67767;45.636;11.756;2024-03-17T02:22:39;86.15;;;48.22;;
73136;SDS011;67767;45.636;11.756;2024-03-17T02:25:05;85.88;;;48.70;;
73136;SDS011;67767;45.636;11.756;2024-03-17T02:27:33;80.80;;;47.53;;
73136;SDS011;67767;45.636;11.756;2024-03-17T02:30:00;79.38;;;46.83;;
73136;SDS011;67767;45.636;11.756;2024-03-17T02:32:26;84.68;;;47.97;;
73136;SDS011;67767;45.636;11.756;2024-03-17T02:34:52;80.05;;;47.97;;
73136;SDS011;67767;45.636;11.756;2024-03-17T02:37:18;79.88;;;46.03;;
73136;SDS011;67767;45.636;11.756;2024-03-17T02:39:44;83.37;;;47.57;;
73136;SDS011;67767;45.636;11.756;2024-03-17T02:42:10;85.33;;;47.77;;
73136;SDS011;67767;45.636;11.756;2024-03-17T02:44:37;89.13;;;49.65;;
73136;SDS011;67767;45.636;11.756;2024-03-17T02:47:04;88.68;;;47.58;;
73136;SDS011;67767;45.636;11.756;2024-03-17T02:49:31;90.00;;;47.63;;
73136;SDS011;67767;45.636;11.756;2024-03-17T02:52:02;88.10;;;48.10;;
73136;SDS011;67767;45.636;11.756;2024-03-17T02:54:29;75.90;;;44.33;;
73136;SDS011;67767;45.636;11.756;2024-03-17T02:56:55;86.88;;;47.35;;
73136;SDS011;67767;45.636;11.756;2024-03-17T02:59:20;82.67;;;47.50;;
73136;SDS011;67767;45.636;11.756;2024-03-17T03:01:46;79.57;;;45.73;;
73136;SDS011;67767;45.636;11.756;2024-03-17T03:04:12;70.60;;;43.13;;
73136;SDS011;67767;45.636;11.756;2024-03-17T03:06:38;76.22;;;45.85;;
73136;SDS011;67767;45.636;11.756;2024-03-17T03:09:03;81.57;;;46.17;;
73136;SDS011;67767;45.636;11.756;2024-03-17T03:11:37;77.22;;;44.92;;
73136;SDS011;67767;45.636;11.756;2024-03-17T03:14:04;80.53;;;45.72;;
73136;SDS011;67767;45.636;11.756;2024-03-17T03:16:30;74.23;;;44.17;;
73136;SDS011;67767;45.636;11.756;2024-03-17T03:18:55;81.97;;;46.75;;
73136;SDS011;67767;45.636;11.756;2024-03-17T03:21:21;77.10;;;44.50;;
73136;SDS011;67767;45.636;11.756;2024-03-17T03:23:47;75.53;;;45.53;;
73136;SDS011;67767;45.636;11.756;2024-03-17T03:26:12;76.67;;;45.63;;
73136;SDS011;67767;45.636;11.756;2024-03-17T03:28:38;78.18;;;46.03;;
73136;SDS011;67767;45.636;11.756;2024-03-17T03:31:04;85.43;;;46.60;;
73136;SDS011;67767;45.636;11.756;2024-03-17T03:33:30;82.18;;;46.63;;
73136;SDS011;67767;45.636;11.756;2024-03-17T03:35:56;83.05;;;45.95;;
73136;SDS011;67767;45.636;11.756;2024-03-17T03:38:22;78.43;;;44.70;;
73136;SDS011;67767;45.636;11.756;2024-03-17T03:40:48;80.30;;;46.13;;
73136;SDS011;67767;45.636;11.756;2024-03-17T03:43:14;79.88;;;46.55;;
73136;SDS011;67767;45.636;11.756;2024-03-17T03:45:40;87.55;;;48.35;;
73136;SDS011;67767;45.636;11.756;2024-03-17T03:48:06;84.10;;;48.23;;
73136;SDS011;67767;45.636;11.756;2024-03-17T03:50:37;75.70;;;43.53;;
73136;SDS011;67767;45.636;11.756;2024-03-17T03:53:03;79.50;;;45.75;;
73136;SDS011;67767;45.636;11.756;2024-03-17T03:55:30;78.25;;;45.05;;
73136;SDS011;67767;45.636;11.756;2024-03-17T03:57:56;73.35;;;42.90;;
73136;SDS011;67767;45.636;11.756;2024-03-17T04:00:22;78.73;;;44.97;;
73136;SDS011;67767;45.636;11.756;2024-03-17T04:02:49;78.90;;;45.22;;
73136;SDS011;67767;45.636;11.756;2024-03-17T04:05:15;72.65;;;43.55;;
73136;SDS011;67767;45.636;11.756;2024-03-17T04:07:41;76.77;;;43.53;;
73136;SDS011;67767;45.636;11.756;2024-03-17T04:10:08;82.47;;;45.42;;
73136;SDS011;67767;45.636;11.756;2024-03-17T04:12:34;82.47;;;46.30;;
73136;SDS011;67767;45.636;11.756;2024-03-17T04:15:00;77.90;;;44.35;;
73136;SDS011;67767;45.636;11.756;2024-03-17T04:17:26;84.33;;;46.57;;
73136;SDS011;67767;45.636;11.756;2024-03-17T04:19:52;74.47;;;44.70;;
73136;SDS011;67767;45.636;11.756;2024-03-17T04:22:19;77.43;;;43.63;;
73136;SDS011;67767;45.636;11.756;2024-03-17T04:24:45;73.70;;;43.65;;
73136;SDS011;67767;45.636;11.756;2024-03-17T04:27:12;82.07;;;45.40;;
73136;SDS011;67767;45.636;11.756;2024-03-17T04:29:38;77.43;;;44.03;;
73136;SDS011;67767;45.636;11.756;2024-03-17T04:32:05;81.63;;;45.75;;
73136;SDS011;67767;45.636;11.756;2024-03-17T04:34:31;79.60;;;45.05;;
73136;SDS011;67767;45.636;11.756;2024-03-17T04:36:57;81.13;;;43.88;;
73136;SDS011;67767;45.636;11.756;2024-03-17T04:39:23;79.83;;;44.70;;
73136;SDS011;67767;45.636;11.756;2024-03-17T04:41:50;79.47;;;43.13;;
73136;SDS011;67767;45.636;11.756;2024-03-17T04:44:16;80.00;;;43.47;;
73136;SDS011;67767;45.636;11.756;2024-03-17T04:46:42;80.82;;;44.63;;
73136;SDS011;67767;45.636;11.756;2024-03-17T04:49:08;78.57;;;43.67;;
73136;SDS011;67767;45.636;11.756;2024-03-17T04:51:34;81.10;;;44.37;;
73136;SDS011;67767;45.636;11.756;2024-03-17T04:54:00;81.60;;;44.75;;
73136;SDS011;67767;45.636;11.756;2024-03-17T04:56:29;83.85;;;45.42;;
73136;SDS011;67767;45.636;11.756;2024-03-17T04:58:54;73.10;;;42.80;;
73136;SDS011;67767;45.636;11.756;2024-03-17T05:01:20;81.95;;;45.08;;
73136;SDS011;67767;45.636;11.756;2024-03-17T05:03:46;80.67;;;45.03;;
73136;SDS011;67767;45.636;11.756;2024-03-17T05:06:12;82.25;;;45.10;;
73136;SDS011;67767;45.636;11.756;2024-03-17T05:08:37;78.17;;;45.87;;
73136;SDS011;67767;45.636;11.756;2024-03-17T05:11:04;78.47;;;44.40;;
73136;SDS011;67767;45.636;11.756;2024-03-17T05:13:34;75.65;;;43.55;;
73136;SDS011;67767;45.636;11.756;2024-03-17T05:16:01;76.23;;;43.93;;
73136;SDS011;67767;45.636;11.756;2024-03-17T05:18:28;74.88;;;43.40;;
73136;SDS011;67767;45.636;11.756;2024-03-17T05:21:04;77.10;;;43.45;;
73136;SDS011;67767;45.636;11.756;2024-03-17T05:23:31;77.57;;;43.38;;
73136;SDS011;67767;45.636;11.756;2024-03-17T05:25:58;77.22;;;41.97;;
73136;SDS011;67767;45.636;11.756;2024-03-17T05:28:25;74.40;;;41.77;;
73136;SDS011;67767;45.636;11.756;2024-03-17T05:30:52;73.25;;;43.10;;
73136;SDS011;67767;45.636;11.756;2024-03-17T05:33:21;76.13;;;42.90;;
73136;SDS011;67767;45.636;11.756;2024-03-17T05:35:50;74.82;;;41.88;;
73136;SDS011;67767;45.636;11.756;2024-03-17T05:38:18;75.67;;;41.77;;
73136;SDS011;67767;45.636;11.756;2024-03-17T05:40:51;74.07;;;40.95;;
73136;SDS011;67767;45.636;11.756;2024-03-17T05:43:38;72.22;;;40.15;;
73136;SDS011;67767;45.636;11.756;2024-03-17T05:46:07;73.40;;;40.38;;
73136;SDS011;67767;45.636;11.756;2024-03-17T05:48:34;78.32;;;41.80;;
73136;SDS011;67767;45.636;11.756;2024-03-17T05:51:10;70.90;;;40.60;;
73136;SDS011;67767;45.636;11.756;2024-03-17T05:53:36;72.55;;;39.95;;
73136;SDS011;67767;45.636;11.756;2024-03-17T05:56:09;72.38;;;41.55;;
73136;SDS011;67767;45.636;11.756;2024-03-17T05:58:36;72.00;;;39.70;;
73136;SDS011;67767;45.636;11.756;2024-03-17T06:01:02;68.13;;;38.50;;
73136;SDS011;67767;45.636;11.756;2024-03-17T06:03:28;70.27;;;38.10;;
73136;SDS011;67767;45.636;11.756;2024-03-17T06:05:54;69.53;;;39.05;;
73136;SDS011;67767;45.636;11.756;2024-03-17T06:08:19;70.23;;;39.50;;
73136;SDS011;67767;45.636;11.756;2024-03-17T06:10:47;72.85;;;38.97;;
73136;SDS011;67767;45.636;11.756;2024-03-17T06:13:13;69.70;;;39.17;;
73136;SDS011;67767;45.636;11.756;2024-03-17T06:15:43;70.15;;;40.00;;
73136;SDS011;67767;45.636;11.756;2024-03-17T06:18:12;70.97;;;40.20;;
73136;SDS011;67767;45.636;11.756;2024-03-17T06:20:39;70.70;;;38.00;;
73136;SDS011;67767;45.636;11.756;2024-03-17T06:23:09;69.07;;;39.40;;
73136;SDS011;67767;45.636;11.756;2024-03-17T06:25:47;70.60;;;38.20;;
73136;SDS011;67767;45.636;11.756;2024-03-17T06:28:14;69.47;;;39.10;;
73136;SDS011;67767;45.636;11.756;2024-03-17T06:30:44;71.43;;;38.42;;
73136;SDS011;67767;45.636;11.756;2024-03-17T06:33:13;71.70;;;38.27;;
73136;SDS011;67767;45.636;11.756;2024-03-17T06:35:41;68.00;;;37.78;;
73136;SDS011;67767;45.636;11.756;2024-03-17T06:38:07;66.88;;;38.05;;
73136;SDS011;67767;45.636;11.756;2024-03-17T06:40:38;68.43;;;39.07;;
73136;SDS011;67767;45.636;11.756;2024-03-17T06:43:04;63.08;;;35.30;;
73136;SDS011;67767;45.636;11.756;2024-03-17T06:45:30;66.70;;;36.95;;
73136;SDS011;67767;45.636;11.756;2024-03-17T06:47:56;64.18;;;37.17;;
73136;SDS011;67767;45.636;11.756;2024-03-17T06:50:23;63.13;;;36.53;;
73136;SDS011;67767;45.636;11.756;2024-03-17T06:52:49;64.70;;;36.63;;
73136;SDS011;67767;45.636;11.756;2024-03-17T06:55:14;65.50;;;37.50;;
73136;SDS011;67767;45.636;11.756;2024-03-17T06:57:44;67.70;;;37.20;;
73136;SDS011;67767;45.636;11.756;2024-03-17T07:00:10;64.13;;;36.97;;
73136;SDS011;67767;45.636;11.756;2024-03-17T07:02:39;59.20;;;36.45;;
73136;SDS011;67767;45.636;11.756;2024-03-17T07:05:06;58.75;;;35.10;;
73136;SDS011;67767;45.636;11.756;2024-03-17T07:07:32;57.63;;;34.45;;
73136;SDS011;67767;45.636;11.756;2024-03-17T07:09:58;52.80;;;33.93;;
73136;SDS011;67767;45.636;11.756;2024-03-17T07:12:24;55.45;;;34.00;;
73136;SDS011;67767;45.636;11.756;2024-03-17T07:14:50;53.73;;;31.37;;
73136;SDS011;67767;45.636;11.756;2024-03-17T07:17:16;52.13;;;31.88;;
73136;SDS011;67767;45.636;11.756;2024-03-17T07:19:42;53.93;;;31.33;;
73136;SDS011;67767;45.636;11.756;2024-03-17T07:22:08;56.63;;;32.80;;
73136;SDS011;67767;45.636;11.756;2024-03-17T07:24:33;54.47;;;32.57;;
73136;SDS011;67767;45.636;11.756;2024-03-17T07:26:59;58.65;;;36.45;;
73136;SDS011;67767;45.636;11.756;2024-03-17T07:29:25;58.90;;;33.77;;
73136;SDS011;67767;45.636;11.756;2024-03-17T07:31:50;59.28;;;35.08;;
73136;SDS011;67767;45.636;11.756;2024-03-17T07:34:16;61.60;;;34.80;;
73136;SDS011;67767;45.636;11.756;2024-03-17T07:36:42;60.83;;;35.65;;
73136;SDS011;67767;45.636;11.756;2024-03-17T07:39:07;62.40;;;36.87;;
73136;SDS011;67767;45.636;11.756;2024-03-17T07:41:33;64.33;;;36.03;;
73136;SDS011;67767;45.636;11.756;2024-03-17T07:43:59;58.90;;;35.70;;
73136;SDS011;67767;45.636;11.756;2024-03-17T07:46:24;65.53;;;36.60;;
73136;SDS011;67767;45.636;11.756;2024-03-17T07:48:50;63.00;;;36.13;;
73136;SDS011;67767;45.636;11.756;2024-03-17T07:51:16;64.60;;;37.03;;
73136;SDS011;67767;45.636;11.756;2024-03-17T07:53:43;63.33;;;36.57;;
73136;SDS011;67767;45.636;11.756;2024-03-17T07:56:11;63.65;;;37.78;;
73136;SDS011;67767;45.636;11.756;2024-03-17T07:58:38;67.78;;;39.30;;
73136;SDS011;67767;45.636;11.756;2024-03-17T08:01:08;65.97;;;38.95;;
73136;SDS011;67767;45.636;11.756;2024-03-17T08:03:36;66.45;;;38.15;;
73136;SDS011;67767;45.636;11.756;2024-03-17T08:06:04;69.10;;;39.13;;
73136;SDS011;67767;45.636;11.756;2024-03-17T08:08:31;66.57;;;37.80;;
73136;SDS011;67767;45.636;11.756;2024-03-17T08:10:57;64.80;;;38.35;;
73136;SDS011;67767;45.636;11.756;2024-03-17T08:13:23;64.78;;;36.45;;
73136;SDS011;67767;45.636;11.756;2024-03-17T08:15:57;63.63;;;36.28;;
73136;SDS011;67767;45.636;11.756;2024-03-17T08:18:27;62.83;;;36.77;;
73136;SDS011;67767;45.636;11.756;2024-03-17T08:20:53;64.88;;;36.38;;
73136;SDS011;67767;45.636;11.756;2024-03-17T08:23:19;64.60;;;36.35;;
73136;SDS011;67767;45.636;11.756;2024-03-17T08:25:59;66.40;;;36.97;;
73136;SDS011;67767;45.636;11.756;2024-03-17T08:28:26;63.42;;;36.60;;
73136;SDS011;67767;45.636;11.756;2024-03-17T08:30:53;60.83;;;37.00;;
73136;SDS011;67767;45.636;11.756;2024-03-17T08:33:20;60.15;;;36.22;;
73136;SDS011;67767;45.636;11.756;2024-03-17T08:38:22;60.38;;;35.35;;
73136;SDS011;67767;45.636;11.756;2024-03-17T08:40:50;60.10;;;36.97;;
73136;SDS011;67767;45.636;11.756;2024-03-17T08:43:16;58.47;;;35.63;;
73136;SDS011;67767;45.636;11.756;2024-03-17T08:45:42;59.78;;;36.40;;
73136;SDS011;67767;45.636;11.756;2024-03-17T08:48:08;59.20;;;34.85;;
73136;SDS011;67767;45.636;11.756;2024-03-17T08:50:35;61.85;;;35.33;;
73136;SDS011;67767;45.636;11.756;2024-03-17T08:53:01;58.50;;;34.75;;
73136;SDS011;67767;45.636;11.756;2024-03-17T08:55:27;64.20;;;36.03;;
73136;SDS011;67767;45.636;11.756;2024-03-17T08:57:52;60.45;;;37.38;;
73136;SDS011;67767;45.636;11.756;2024-03-17T09:00:18;55.93;;;35.10;;
73136;SDS011;67767;45.636;11.756;2024-03-17T09:02:44;59.70;;;35.17;;
73136;SDS011;67767;45.636;11.756;2024-03-17T09:05:09;59.63;;;36.77;;
73136;SDS011;67767;45.636;11.756;2024-03-17T09:07:37;61.97;;;35.67;;
73136;SDS011;67767;45.636;11.756;2024-03-17T09:10:04;56.95;;;34.70;;
73136;SDS011;67767;45.636;11.756;2024-03-17T09:12:31;65.73;;;37.03;;
73136;SDS011;67767;45.636;11.756;2024-03-17T09:14:57;58.47;;;36.90;;
73136;SDS011;67767;45.636;11.756;2024-03-17T09:17:22;58.58;;;36.00;;
73136;SDS011;67767;45.636;11.756;2024-03-17T09:19:48;60.77;;;37.07;;
73136;SDS011;67767;45.636;11.756;2024-03-17T09:22:13;61.42;;;36.42;;
73136;SDS011;67767;45.636;11.756;2024-03-17T09:24:39;58.33;;;34.87;;
73136;SDS011;67767;45.636;11.756;2024-03-17T09:27:06;57.17;;;35.97;;
73136;SDS011;67767;45.636;11.756;2024-03-17T09:29:31;62.30;;;36.77;;
73136;SDS011;67767;45.636;11.756;2024-03-17T09:31:58;66.55;;;36.70;;
73136;SDS011;67767;45.636;11.756;2024-03-17T09:34:23;57.42;;;36.08;;
73136;SDS011;67767;45.636;11.756;2024-03-17T09:36:49;55.80;;;34.67;;
73136;SDS011;67767;45.636;11.756;2024-03-17T09:39:15;56.30;;;34.63;;
73136;SDS011;67767;45.636;11.756;2024-03-17T09:41:41;53.38;;;32.42;;
73136;SDS011;67767;45.636;11.756;2024-03-17T09:44:09;57.60;;;34.13;;
73136;SDS011;67767;45.636;11.756;2024-03-17T09:46:38;57.08;;;34.22;;
73136;SDS011;67767;45.636;11.756;2024-03-17T09:49:04;55.38;;;33.03;;
73136;SDS011;67767;45.636;11.756;2024-03-17T09:51:29;53.80;;;34.43;;
73136;SDS011;67767;45.636;11.756;2024-03-17T09:53:57;55.20;;;35.13;;
73136;SDS011;67767;45.636;11.756;2024-03-17T09:56:22;57.47;;;34.43;;
73136;SDS011;67767;45.636;11.756;2024-03-17T09:58:49;55.20;;;35.50;;
73136;SDS011;67767;45.636;11.756;2024-03-17T10:01:15;54.47;;;34.95;;
73136;SDS011;67767;45.636;11.756;2024-03-17T10:03:48;57.17;;;35.57;;
73136;SDS011;67767;45.636;11.756;2024-03-17T10:06:20;54.38;;;33.35;;
73136;SDS011;67767;45.636;11.756;2024-03-17T10:08:50;50.42;;;32.42;;
73136;SDS011;67767;45.636;11.756;2024-03-17T10:11:18;51.72;;;32.90;;
73136;SDS011;67767;45.636;11.756;2024-03-17T10:14:21;50.65;;;31.60;;
73136;SDS011;67767;45.636;11.756;2024-03-17T10:16:42;49.77;;;32.43;;
73136;SDS011;67767;45.636;11.756;2024-03-17T10:19:15;55.55;;;32.85;;
73136;SDS011;67767;45.636;11.756;2024-03-17T10:21:49;47.38;;;31.08;;
73136;SDS011;67767;45.636;11.756;2024-03-17T10:24:22;49.88;;;32.72;;
73136;SDS011;67767;45.636;11.756;2024-03-17T10:26:53;49.40;;;31.88;;
73136;SDS011;67767;45.636;11.756;2024-03-17T10:34:22;51.67;;;32.45;;
73136;SDS011;67767;45.636;11.756;2024-03-17T10:39:31;51.03;;;32.85;;
73136;SDS011;67767;45.636;11.756;2024-03-17T10:42:02;53.20;;;34.33;;
73136;SDS011;67767;45.636;11.756;2024-03-17T10:44:34;55.97;;;35.70;;
73136;SDS011;67767;45.636;11.756;2024-03-17T10:47:01;56.20;;;36.45;;
73136;SDS011;67767;45.636;11.756;2024-03-17T10:49:28;56.85;;;35.08;;
73136;SDS011;67767;45.636;11.756;2024-03-17T10:52:00;54.95;;;34.65;;
73136;SDS011;67767;45.636;11.756;2024-03-17T10:54:27;53.10;;;32.97;;
73136;SDS011;67767;45.636;11.756;2024-03-17T10:56:57;52.05;;;32.47;;
73136;SDS011;67767;45.636;11.756;2024-03-17T10:59:40;53.80;;;33.65;;
73136;SDS011;67767;45.636;11.756;2024-03-17T11:02:27;53.35;;;32.58;;
73136;SDS011;67767;45.636;11.756;2024-03-17T11:05:00;52.13;;;32.65;;
73136;SDS011;67767;45.636;11.756;2024-03-17T11:07:38;51.07;;;32.83;;
73136;SDS011;67767;45.636;11.756;2024-03-17T11:10:10;57.38;;;33.90;;
73136;SDS011;67767;45.636;11.756;2024-03-17T11:12:50;53.88;;;34.75;;
73136;SDS011;67767;45.636;11.756;2024-03-17T11:20:39;54.50;;;33.23;;
73136;SDS011;67767;45.636;11.756;2024-03-17T11:23:06;52.28;;;34.30;;
73136;SDS011;67767;45.636;11.756;2024-03-17T11:28:00;53.60;;;34.22;;
73136;SDS011;67767;45.636;11.756;2024-03-17T11:41:37;51.90;;;31.02;;
73136;SDS011;67767;45.636;11.756;2024-03-17T11:46:41;46.50;;;30.60;;
73136;SDS011;67767;45.636;11.756;2024-03-17T11:49:17;50.95;;;32.00;;
73136;SDS011;67767;45.636;11.756;2024-03-17T11:51:51;47.63;;;30.33;;
73136;SDS011;67767;45.636;11.756;2024-03-17T11:54:18;45.53;;;29.80;;
73136;SDS011;67767;45.636;11.756;2024-03-17T11:56:50;50.08;;;32.15;;
73136;SDS011;67767;45.636;11.756;2024-03-17T11:59:17;50.53;;;32.53;;
73136;SDS011;67767;45.636;11.756;2024-03-17T12:01:45;48.10;;;31.77;;
73136;SDS011;67767;45.636;11.756;2024-03-17T12:04:12;50.08;;;32.38;;
73136;SDS011;67767;45.636;11.756;2024-03-17T12:06:39;50.55;;;31.75;;
73136;SDS011;67767;45.636;11.756;2024-03-17T12:09:16;53.37;;;33.40;;
73136;SDS011;67767;45.636;11.756;2024-03-17T12:12:00;47.00;;;30.70;;
73136;SDS011;67767;45.636;11.756;2024-03-17T12:14:27;45.60;;;31.98;;
73136;SDS011;67767;45.636;11.756;2024-03-17T12:16:57;44.58;;;30.13;;
73136;SDS011;67767;45.636;11.756;2024-03-17T12:19:23;47.50;;;31.58;;
73136;SDS011;67767;45.636;11.756;2024-03-17T12:21:52;45.50;;;29.50;;
73136;SDS011;67767;45.636;11.756;2024-03-17T12:24:21;44.47;;;30.17;;
73136;SDS011;67767;45.636;11.756;2024-03-17T12:26:48;44.63;;;30.05;;
73136;SDS011;67767;45.636;11.756;2024-03-17T12:31:55;44.83;;;29.80;;
73136;SDS011;67767;45.636;11.756;2024-03-17T12:34:22;43.67;;;28.53;;
73136;SDS011;67767;45.636;11.756;2024-03-17T12:36:51;46.40;;;30.48;;
73136;SDS011;67767;45.636;11.756;2024-03-17T12:39:19;45.97;;;28.75;;
73136;SDS011;67767;45.636;11.756;2024-03-17T12:44:33;44.40;;;28.67;;
73136;SDS011;67767;45.636;11.756;2024-03-17T12:47:02;39.80;;;28.00;;
73136;SDS011;67767;45.636;11.756;2024-03-17T12:49:31;40.80;;;27.00;;
73136;SDS011;67767;45.636;11.756;2024-03-17T12:51:59;41.47;;;27.60;;
73136;SDS011;67767;45.636;11.756;2024-03-17T12:54:26;39.90;;;27.27;;
73136;SDS011;67767;45.636;11.756;2024-03-17T12:57:03;40.10;;;25.35;;
73136;SDS011;67767;45.636;11.756;2024-03-17T12:59:48;38.47;;;25.37;;
73136;SDS011;67767;45.636;11.756;2024-03-17T13:02:32;41.58;;;27.95;;
73136;SDS011;67767;45.636;11.756;2024-03-17T13:05:10;43.30;;;29.60;;
73136;SDS011;67767;45.636;11.756;2024-03-17T13:07:43;42.13;;;28.17;;
73136;SDS011;67767;45.636;11.756;2024-03-17T13:10:12;43.47;;;29.10;;
73136;SDS011;67767;45.636;11.756;2024-03-17T13:12:39;42.63;;;29.40;;
73136;SDS011;67767;45.636;11.756;2024-03-17T13:15:06;43.75;;;29.50;;
73136;SDS011;67767;45.636;11.756;2024-03-17T13:17:34;45.50;;;28.83;;
73136;SDS011;67767;45.636;11.756;2024-03-17T13:20:00;42.97;;;27.53;;
73136;SDS011;67767;45.636;11.756;2024-03-17T13:22:26;39.92;;;27.40;;
73136;SDS011;67767;45.636;11.756;2024-03-17T13:24:52;39.95;;;26.75;;
73136;SDS011;67767;45.636;11.756;2024-03-17T13:27:17;40.20;;;27.77;;
73136;SDS011;67767;45.636;11.756;2024-03-17T13:29:47;36.55;;;25.58;;
73136;SDS011;67767;45.636;11.756;2024-03-17T13:32:13;37.60;;;26.20;;
73136;SDS011;67767;45.636;11.756;2024-03-17T13:34:40;40.10;;;27.05;;
73136;SDS011;67767;45.636;11.756;2024-03-17T13:37:06;37.23;;;26.13;;
73136;SDS011;67767;45.636;11.756;2024-03-17T13:39:32;39.10;;;25.05;;
73136;SDS011;67767;45.636;11.756;2024-03-17T13:41:59;37.78;;;25.88;;
73136;SDS011;67767;45.636;11.756;2024-03-17T13:44:31;38.23;;;26.63;;
73136;SDS011;67767;45.636;11.756;2024-03-17T13:46:57;36.67;;;25.33;;
73136;SDS011;67767;45.636;11.756;2024-03-17T13:49:27;37.90;;;24.83;;
73136;SDS011;67767;45.636;11.756;2024-03-17T13:51:55;37.63;;;25.85;;
73136;SDS011;67767;45.636;11.756;2024-03-17T13:54:21;39.30;;;26.58;;
73136;SDS011;67767;45.636;11.756;2024-03-17T13:56:47;36.77;;;25.63;;
73136;SDS011;67767;45.636;11.756;2024-03-17T13:59:14;41.67;;;26.75;;
73136;SDS011;67767;45.636;11.756;2024-03-17T14:01:40;38.10;;;26.20;;
73136;SDS011;67767;45.636;11.756;2024-03-17T14:04:13;39.72;;;26.10;;
73136;SDS011;67767;45.636;11.756;2024-03-17T14:06:45;34.93;;;25.23;;
73136;SDS011;67767;45.636;11.756;2024-03-17T14:09:12;39.60;;;26.83;;
73136;SDS011;67767;45.636;11.756;2024-03-17T14:11:39;38.50;;;25.23;;
73136;SDS011;67767;45.636;11.756;2024-03-17T14:14:05;38.30;;;24.63;;
73136;SDS011;67767;45.636;11.756;2024-03-17T14:16:31;39.58;;;26.08;;
73136;SDS011;67767;45.636;11.756;2024-03-17T14:18:58;38.78;;;26.33;;
73136;SDS011;67767;45.636;11.756;2024-03-17T14:21:25;37.67;;;25.45;;
73136;SDS011;67767;45.636;11.756;2024-03-17T14:23:51;36.50;;;25.58;;
73136;SDS011;67767;45.636;11.756;2024-03-17T14:26:17;33.80;;;24.43;;
73136;SDS011;67767;45.636;11.756;2024-03-17T14:28:43;36.50;;;23.63;;
73136;SDS011;67767;45.636;11.756;2024-03-17T14:31:10;35.60;;;23.08;;
73136;SDS011;67767;45.636;11.756;2024-03-17T14:33:36;40.25;;;23.73;;
73136;SDS011;67767;45.636;11.756;2024-03-17T14:36:02;37.40;;;24.37;;
73136;SDS011;67767;45.636;11.756;2024-03-17T14:38:28;35.80;;;22.63;;
73136;SDS011;67767;45.636;11.756;2024-03-17T14:40:53;36.20;;;23.13;;
73136;SDS011;67767;45.636;11.756;2024-03-17T14:43:19;35.58;;;22.38;;
73136;SDS011;67767;45.636;11.756;2024-03-17T14:45:45;37.28;;;23.63;;
73136;SDS011;67767;45.636;11.756;2024-03-17T14:48:11;33.70;;;22.53;;